Time;durP1;ratioP1;P1;durP2;ratioP2;P2;SDS_P1;SDS_P2;PMS_P1;PMS_P2;Temp;Humidity;BMP_temperature;BMP_pressure;BME280_temperature;BME280_humidity;BME280_pressure;Samples;Min_cycle;Max_cycle;Signal;HPM_P1;HPM_P2
2022/03/01 00:02:23;;;;;;;15.60;7.88;;;2.10;70.90;;;;;;5070919;28;20388;-55
2022/03/01 00:04:49;;;;;;;18.75;8.90;;;2.00;71.10;;;;;;5070046;28;20455;-55
2022/03/01 00:07:16;;;;;;;20.45;9.77;;;3.00;72.50;;;;;;5071004;28;20383;-55
2022/03/01 00:09:42;;;;;;;16.70;9.52;;;2.00;71.50;;;;;;5061900;28;20446;-56
2022/03/01 00:12:08;;;;;;;18.13;9.80;;;1.90;71.80;;;;;;5070678;28;20841;-55
2022/03/01 00:14:34;;;;;;;21.80;10.43;;;1.90;72.00;;;;;;5070545;28;20372;-55
2022/03/01 00:17:00;;;;;;;19.48;10.35;;;1.80;72.50;;;;;;5069730;28;20415;-55
2022/03/01 00:19:29;;;;;;;17.63;9.20;;;1.80;73.40;;;;;;5070236;28;20746;-55
2022/03/01 00:21:55;;;;;;;19.00;10.20;;;1.80;74.80;;;;;;5051630;28;20412;-55
2022/03/01 00:24:21;;;;;;;18.23;10.00;;;1.80;75.50;;;;;;5052576;28;20396;-54
2022/03/01 00:26:47;;;;;;;18.58;10.13;;;1.70;76.70;;;;;;5069583;28;20429;-55
2022/03/01 00:29:13;;;;;;;18.73;9.05;;;1.60;77.30;;;;;;5070447;28;20383;-55
2022/03/01 00:31:39;;;;;;;18.40;9.00;;;1.60;78.70;;;;;;5052237;28;20403;-54
2022/03/01 00:34:04;;;;;;;19.17;8.57;;;1.40;93.90;;;;;;5066951;28;20482;-54
2022/03/01 00:36:31;;;;;;;17.50;8.10;;;1.30;95.80;;;;;;5069020;28;20825;-55
2022/03/01 00:38:56;;;;;;;20.40;9.20;;;1.20;96.90;;;;;;5050446;28;20411;-55
2022/03/01 00:41:22;;;;;;;19.13;9.20;;;1.10;97.30;;;;;;5069705;28;20364;-54
2022/03/01 00:43:48;;;;;;;17.27;9.15;;;1.10;97.80;;;;;;5069562;28;20379;-55
2022/03/01 00:46:13;;;;;;;18.10;9.05;;;1.10;98.10;;;;;;5070199;28;20391;-54
2022/03/01 00:48:39;;;;;;;20.20;9.47;;;1.20;98.40;;;;;;5069887;28;20398;-55
2022/03/01 00:51:05;;;;;;;20.05;9.23;;;1.00;98.80;;;;;;5068650;28;20383;-55
2022/03/01 00:53:30;;;;;;;17.67;9.25;;;0.90;99.40;;;;;;5069783;28;20715;-55
2022/03/01 00:55:56;;;;;;;21.17;10.17;;;1.00;99.90;;;;;;5069104;28;20904;-54
2022/03/01 00:58:22;;;;;;;19.00;9.63;;;1.00;99.90;;;;;;5069432;28;20406;-54
2022/03/01 01:00:47;;;;;;;19.20;9.63;;;0.60;99.90;;;;;;5068588;28;20416;-54
2022/03/01 01:03:13;;;;;;;23.43;9.40;;;0.80;99.90;;;;;;5069420;28;20455;-55
2022/03/01 01:05:39;;;;;;;18.50;8.88;;;0.80;99.90;;;;;;5069848;28;20864;-54
2022/03/01 01:08:04;;;;;;;19.90;9.20;;;0.90;99.90;;;;;;5068887;28;20403;-54
2022/03/01 01:10:30;;;;;;;20.73;9.50;;;1.70;99.90;;;;;;5066272;28;20404;-55
2022/03/01 01:12:56;;;;;;;18.60;9.00;;;1.00;99.90;;;;;;5068668;28;20489;-54
2022/03/01 01:15:22;;;;;;;19.60;8.45;;;1.00;99.90;;;;;;5067277;28;20493;-54
2022/03/01 01:17:47;;;;;;;21.90;9.73;;;1.00;99.90;;;;;;5068154;28;20775;-54
2022/03/01 01:20:15;;;;;;;21.48;9.55;;;1.00;99.90;;;;;;5067078;28;20845;-54
2022/03/01 01:22:41;;;;;;;21.03;8.63;;;1.30;99.90;;;;;;5068489;28;20419;-56
2022/03/01 01:25:19;;;;;;;19.70;9.70;;;1.10;99.90;;;;;;5068444;28;20814;-54
2022/03/01 01:27:48;;;;;;;19.15;9.50;;;1.10;99.90;;;;;;5068479;28;20467;-57
2022/03/01 01:30:19;;;;;;;20.52;9.07;;;1.00;99.90;;;;;;5069519;28;20372;-54
2022/03/01 01:32:48;;;;;;;21.48;9.73;;;0.90;99.90;;;;;;5068434;28;20380;-56
2022/03/01 01:35:14;;;;;;;21.40;9.85;;;0.90;99.90;;;;;;5069052;28;20372;-54
2022/03/01 01:37:41;;;;;;;18.75;8.40;;;1.10;99.90;;;;;;5051063;28;20800;-54
2022/03/01 01:40:17;;;;;;;19.20;8.70;;;0.80;99.90;;;;;;5068125;28;20753;-54
2022/03/01 01:42:44;;;;;;;20.15;8.98;;;1.30;99.90;;;;;;5068598;28;21148;-56
2022/03/01 01:45:11;;;;;;;18.15;8.32;;;0.80;99.90;;;;;;5068694;28;20376;-54
2022/03/01 01:47:36;;;;;;;20.75;8.77;;;1.70;99.90;;;;;;5068826;28;20396;-54
2022/03/01 01:50:04;;;;;;;17.80;8.45;;;0.80;99.90;;;;;;5068156;28;20382;-54
2022/03/01 01:52:29;;;;;;;18.17;8.25;;;1.80;99.90;;;;;;5066328;28;20398;-54
2022/03/01 01:54:55;;;;;;;19.25;8.52;;;0.90;99.90;;;;;;5068578;28;20888;-54
2022/03/01 01:57:23;;;;;;;18.88;8.55;;;0.90;99.90;;;;;;5068919;28;20885;-54
2022/03/01 01:59:50;;;;;;;20.88;9.68;;;0.80;99.90;;;;;;5064776;28;20398;-54
2022/03/01 02:02:20;;;;;;;20.65;9.27;;;0.80;99.90;;;;;;5068663;28;20388;-54
2022/03/01 02:04:46;;;;;;;20.30;9.73;;;0.60;99.90;;;;;;5068017;28;20387;-56
2022/03/01 02:07:12;;;;;;;19.97;9.40;;;0.60;99.90;;;;;;5066490;28;20384;-54
2022/03/01 02:09:38;;;;;;;20.48;8.82;;;0.50;99.90;;;;;;5068508;28;20380;-54
2022/03/01 02:12:05;;;;;;;18.30;8.43;;;0.50;99.90;;;;;;5068057;28;20890;-54
2022/03/01 02:14:32;;;;;;;19.30;8.95;;;0.50;99.90;;;;;;5065896;28;20863;-54
2022/03/01 02:17:06;;;;;;;21.38;9.00;;;0.40;99.90;;;;;;5067889;28;20443;-54
2022/03/01 02:19:32;;;;;;;23.92;9.77;;;0.50;99.90;;;;;;5066823;28;20387;-54
2022/03/01 02:21:58;;;;;;;20.15;9.10;;;0.40;99.90;;;;;;5071606;28;20480;-54
2022/03/01 02:24:25;;;;;;;19.88;9.43;;;0.30;99.90;;;;;;5072810;28;20392;-54
2022/03/01 02:26:56;;;;;;;23.53;9.43;;;0.50;99.90;;;;;;5068717;28;20439;-54
2022/03/01 02:29:22;;;;;;;21.90;9.82;;;0.40;99.90;;;;;;5072558;28;20391;-54
2022/03/01 02:31:49;;;;;;;24.95;9.60;;;0.30;99.90;;;;;;5071646;28;20722;-55
2022/03/01 02:34:14;;;;;;;20.45;9.77;;;0.40;99.90;;;;;;5072336;28;20809;-54
2022/03/01 02:36:40;;;;;;;18.60;9.40;;;0.40;99.90;;;;;;5072440;28;20616;-55
2022/03/01 02:39:06;;;;;;;20.67;8.87;;;0.50;99.90;;;;;;5053373;28;20399;-55
2022/03/01 02:41:31;;;;;;;24.70;10.45;;;0.40;99.90;;;;;;5072242;28;20374;-55
2022/03/01 02:43:57;;;;;;;19.33;9.38;;;1.50;99.90;;;;;;5071360;28;20474;-54
2022/03/01 02:46:23;;;;;;;20.45;10.32;;;0.40;99.90;;;;;;5071806;28;20497;-55
2022/03/01 02:48:51;;;;;;;19.43;9.93;;;0.40;99.90;;;;;;5070972;28;20380;-55
2022/03/01 02:51:17;;;;;;;22.08;10.43;;;0.60;99.90;;;;;;5072152;28;20399;-54
2022/03/01 02:53:42;;;;;;;18.40;9.10;;;0.40;99.90;;;;;;5071982;28;20376;-55
2022/03/01 02:56:08;;;;;;;20.67;9.97;;;0.30;98.30;;;;;;5071517;28;20939;-54
2022/03/01 02:58:34;;;;;;;21.63;9.98;;;0.30;98.50;;;;;;5071852;28;20408;-54
2022/03/01 03:00:59;;;;;;;21.30;10.03;;;0.30;98.80;;;;;;5065837;28;20403;-54
2022/03/01 03:03:25;;;;;;;21.15;9.50;;;0.30;99.00;;;;;;5067592;28;20395;-54
2022/03/01 03:05:50;;;;;;;19.33;9.18;;;0.20;99.30;;;;;;5070593;28;20407;-54
2022/03/01 03:08:16;;;;;;;21.70;10.40;;;0.20;99.80;;;;;;5071324;28;20391;-54
2022/03/01 03:10:42;;;;;;;20.50;9.45;;;0.30;99.70;;;;;;5052785;28;20894;-54
2022/03/01 03:13:08;;;;;;;20.85;9.57;;;0.20;99.90;;;;;;5069328;28;20388;-54
2022/03/01 03:15:33;;;;;;;19.73;9.30;;;0.10;99.90;;;;;;5068883;28;20742;-55
2022/03/01 03:17:59;;;;;;;22.07;9.83;;;0.00;99.90;;;;;;5070647;28;20518;-54
2022/03/01 03:20:25;;;;;;;21.73;10.40;;;-0.40;99.90;;;;;;5071690;28;20679;-54
2022/03/01 03:22:51;;;;;;;19.83;9.73;;;0.50;99.90;;;;;;5071008;28;20403;-54
2022/03/01 03:25:17;;;;;;;20.80;9.13;;;-0.20;99.90;;;;;;5071903;28;20460;-54
2022/03/01 03:27:42;;;;;;;18.75;9.48;;;-0.20;99.90;;;;;;5069671;28;20403;-54
2022/03/01 03:30:09;;;;;;;21.02;9.77;;;-0.10;99.90;;;;;;5052895;28;20395;-54
2022/03/01 03:32:35;;;;;;;22.27;10.00;;;-0.20;99.90;;;;;;5068550;28;20388;-54
2022/03/01 03:35:02;;;;;;;21.95;10.02;;;-0.20;99.90;;;;;;5070775;28;20380;-54
2022/03/01 03:37:27;;;;;;;22.27;9.88;;;-0.30;99.90;;;;;;5071344;28;20411;-54
2022/03/01 03:39:53;;;;;;;19.70;9.30;;;-0.70;99.90;;;;;;5070221;28;20399;-54
2022/03/01 03:42:19;;;;;;;21.30;10.10;;;-0.70;99.90;;;;;;5071222;28;20369;-54
2022/03/01 03:44:45;;;;;;;20.40;10.30;;;-0.50;99.90;;;;;;5070982;28;20376;-56
2022/03/01 03:47:11;;;;;;;18.98;8.70;;;-0.50;99.90;;;;;;5070427;28;20399;-54
2022/03/01 03:49:37;;;;;;;21.90;9.70;;;-0.40;99.90;;;;;;5070976;28;20756;-54
2022/03/01 03:52:04;;;;;;;18.52;9.65;;;-0.40;99.90;;;;;;5070080;28;20810;-54
2022/03/01 03:54:30;;;;;;;21.95;9.50;;;-0.40;99.90;;;;;;5071059;28;20399;-54
2022/03/01 03:56:56;;;;;;;21.60;8.70;;;0.80;99.90;;;;;;5070052;28;20881;-54
2022/03/01 03:59:22;;;;;;;21.98;9.70;;;-0.60;99.90;;;;;;5071503;28;20383;-54
2022/03/01 04:01:48;;;;;;;21.35;9.77;;;-0.60;99.90;;;;;;5070163;28;20734;-55
2022/03/01 04:04:13;;;;;;;20.60;9.70;;;-0.20;99.90;;;;;;5071113;28;20887;-54
2022/03/01 04:06:39;;;;;;;20.03;9.43;;;-0.50;99.90;;;;;;5070819;28;20784;-54
2022/03/01 04:09:05;;;;;;;21.73;9.73;;;-0.50;99.90;;;;;;5070527;28;20540;-54
2022/03/01 04:11:31;;;;;;;26.95;10.98;;;-0.50;99.90;;;;;;5069192;28;20407;-54
2022/03/01 04:13:57;;;;;;;24.30;10.27;;;-0.50;99.90;;;;;;5067297;28;20537;-54
2022/03/01 04:16:23;;;;;;;20.95;9.02;;;-0.40;99.90;;;;;;5072803;28;20475;-54
2022/03/01 04:18:49;;;;;;;22.25;9.13;;;0.50;99.90;;;;;;5083704;28;20498;-55
2022/03/01 04:21:15;;;;;;;22.95;9.77;;;-0.40;99.90;;;;;;5090680;28;20386;-54
2022/03/01 04:23:40;;;;;;;21.27;9.30;;;-0.40;99.90;;;;;;5074752;28;20381;-54
2022/03/01 04:26:07;;;;;;;21.65;9.00;;;-0.50;99.90;;;;;;5064586;28;21110;-54
2022/03/01 04:28:32;;;;;;;20.23;8.68;;;-0.50;99.90;;;;;;5082058;28;20405;-54
2022/03/01 04:30:58;;;;;;;20.50;9.85;;;-0.50;99.90;;;;;;5072470;28;20436;-54
2022/03/01 04:33:24;;;;;;;19.10;8.87;;;-0.50;99.90;;;;;;5064793;28;20468;-54
2022/03/01 04:35:49;;;;;;;18.60;9.03;;;-0.50;99.90;;;;;;5063517;28;20396;-56
2022/03/01 04:38:16;;;;;;;19.90;8.88;;;-0.50;99.90;;;;;;5066956;28;20414;-54
2022/03/01 04:40:42;;;;;;;19.37;9.60;;;-0.50;99.90;;;;;;5064657;28;20413;-55
2022/03/01 04:43:07;;;;;;;22.03;10.13;;;0.10;99.90;;;;;;5078392;28;20457;-54
2022/03/01 04:45:33;;;;;;;21.00;9.43;;;-0.80;99.90;;;;;;5071938;28;20449;-54
2022/03/01 04:47:59;;;;;;;22.17;9.98;;;-0.60;99.90;;;;;;5067400;28;20391;-54
2022/03/01 04:50:25;;;;;;;20.37;8.87;;;-0.10;99.90;;;;;;5073387;28;20417;-54
2022/03/01 04:52:51;;;;;;;19.03;8.80;;;-0.50;99.90;;;;;;5066035;28;20400;-54
2022/03/01 04:55:17;;;;;;;18.37;9.30;;;-0.60;99.90;;;;;;5075028;28;20861;-54
2022/03/01 04:57:44;;;;;;;18.88;8.73;;;-0.60;99.90;;;;;;5061091;28;20989;-54
2022/03/01 05:00:12;;;;;;;20.88;9.13;;;-0.70;99.90;;;;;;5062922;28;20408;-54
2022/03/01 05:02:44;;;;;;;20.45;9.80;;;-0.70;99.90;;;;;;5065963;28;20944;-54
2022/03/01 05:05:11;;;;;;;20.83;9.80;;;-0.60;99.90;;;;;;5067871;28;20415;-54
2022/03/01 05:07:39;;;;;;;19.75;9.95;;;-0.70;99.90;;;;;;5064584;28;20390;-54
2022/03/01 05:10:06;;;;;;;18.77;9.32;;;-0.90;99.90;;;;;;5062393;28;20376;-54
2022/03/01 05:12:32;;;;;;;20.25;9.43;;;-0.70;99.90;;;;;;5086161;28;20467;-54
2022/03/01 05:14:57;;;;;;;20.77;9.80;;;-0.70;99.90;;;;;;5076598;28;20477;-54
2022/03/01 05:17:23;;;;;;;20.37;9.20;;;0.60;99.90;;;;;;5078494;28;20410;-54
2022/03/01 05:19:48;;;;;;;22.63;9.88;;;-0.70;99.90;;;;;;5059925;28;21242;-55
2022/03/01 05:22:14;;;;;;;20.47;9.60;;;0.30;99.90;;;;;;5066074;28;20413;-54
2022/03/01 05:24:41;;;;;;;22.13;9.27;;;-0.80;99.90;;;;;;5064696;28;20402;-54
2022/03/01 05:27:07;;;;;;;20.98;9.45;;;-0.50;99.90;;;;;;5064552;28;20455;-54
2022/03/01 05:29:33;;;;;;;22.17;9.20;;;0.10;99.90;;;;;;5066765;28;20396;-54
2022/03/01 05:31:58;;;;;;;20.45;10.07;;;-0.50;99.90;;;;;;5065485;28;20409;-54
2022/03/01 05:34:24;;;;;;;20.92;10.45;;;-0.60;99.90;;;;;;5068336;28;20398;-54
2022/03/01 05:36:50;;;;;;;19.00;9.20;;;-0.60;99.90;;;;;;5063238;28;20885;-56
2022/03/01 05:39:15;;;;;;;23.87;9.73;;;-0.60;99.90;;;;;;5067197;28;20905;-54
2022/03/01 05:41:41;;;;;;;24.20;10.20;;;-0.60;99.90;;;;;;5072547;28;20918;-54
2022/03/01 05:44:06;;;;;;;21.90;10.67;;;-0.60;99.90;;;;;;5070695;28;20457;-55
2022/03/01 05:46:32;;;;;;;20.63;9.83;;;-0.60;99.90;;;;;;5076884;28;20386;-54
2022/03/01 05:48:58;;;;;;;22.23;10.15;;;-0.60;99.90;;;;;;5071583;28;20418;-54
2022/03/01 05:51:23;;;;;;;21.53;10.00;;;-0.70;99.90;;;;;;5065079;28;20395;-54
2022/03/01 05:53:53;;;;;;;19.67;9.40;;;-0.70;99.90;;;;;;5064934;28;20753;-55
2022/03/01 05:56:18;;;;;;;24.02;10.10;;;-0.50;99.90;;;;;;5063649;28;20393;-54
2022/03/01 05:58:44;;;;;;;21.57;9.70;;;-1.00;99.90;;;;;;5068565;28;20486;-54
2022/03/01 06:01:10;;;;;;;21.03;9.60;;;-0.90;99.90;;;;;;5058568;28;20409;-55
2022/03/01 06:03:35;;;;;;;25.63;11.00;;;0.40;99.90;;;;;;5074998;28;20375;-54
2022/03/01 06:06:01;;;;;;;25.03;10.83;;;-1.20;99.90;;;;;;5062698;28;20988;-54
2022/03/01 06:08:26;;;;;;;22.10;9.83;;;-0.90;99.90;;;;;;5062923;28;20408;-54
2022/03/01 06:10:52;;;;;;;21.60;9.57;;;-1.10;99.90;;;;;;5065947;28;20425;-54
2022/03/01 06:13:17;;;;;;;21.47;10.73;;;-1.20;99.90;;;;;;5089285;28;20377;-54
2022/03/01 06:15:43;;;;;;;22.37;10.87;;;-1.30;99.90;;;;;;5077306;28;20442;-54
2022/03/01 06:18:09;;;;;;;22.60;10.18;;;-1.30;99.90;;;;;;5083975;28;20417;-54
2022/03/01 06:20:34;;;;;;;22.10;9.80;;;-1.20;99.90;;;;;;5072762;28;20395;-54
2022/03/01 06:23:00;;;;;;;20.90;10.40;;;-1.50;99.90;;;;;;5077180;28;20408;-54
2022/03/01 06:25:26;;;;;;;19.92;9.70;;;-1.70;99.90;;;;;;5086211;28;20940;-54
2022/03/01 06:27:52;;;;;;;22.17;10.10;;;-1.40;99.90;;;;;;5078346;28;20439;-55
2022/03/01 06:30:18;;;;;;;21.02;10.13;;;-1.30;99.90;;;;;;5063775;28;20383;-55
2022/03/01 06:32:43;;;;;;;20.38;10.10;;;-0.80;99.90;;;;;;5068722;28;20394;-55
2022/03/01 06:35:09;;;;;;;20.87;10.07;;;0.30;99.90;;;;;;5067524;28;20392;-54
2022/03/01 06:37:35;;;;;;;19.93;9.60;;;1.20;99.90;;;;;;5057443;28;20420;-55
2022/03/01 06:40:01;;;;;;;19.77;9.25;;;2.20;99.90;;;;;;5059695;28;20922;-55
2022/03/01 06:42:27;;;;;;;19.67;9.75;;;3.60;99.90;;;;;;5061389;28;20372;-55
2022/03/01 06:44:53;;;;;;;22.95;11.10;;;4.30;99.90;;;;;;5054830;28;20513;-55
2022/03/01 06:47:18;;;;;;;22.30;10.00;;;4.70;96.70;;;;;;5068827;28;20865;-54
2022/03/01 06:49:44;;;;;;;22.73;9.80;;;5.30;96.10;;;;;;5068437;28;20979;-54
2022/03/01 06:52:10;;;;;;;21.38;9.60;;;4.00;95.70;;;;;;5068753;28;20372;-54
2022/03/01 06:54:35;;;;;;;21.40;10.70;;;3.90;95.40;;;;;;5068841;28;20730;-54
2022/03/01 06:57:01;;;;;;;21.63;10.07;;;5.10;95.40;;;;;;5067957;28;20406;-55
2022/03/01 06:59:27;;;;;;;19.73;10.48;;;4.10;93.90;;;;;;5068612;28;20388;-55
2022/03/01 07:01:54;;;;;;;23.87;10.60;;;5.00;95.00;;;;;;5068221;28;20376;-56
2022/03/01 07:04:19;;;;;;;22.58;10.35;;;4.40;92.30;;;;;;5062684;28;20400;-56
2022/03/01 07:06:45;;;;;;;19.98;9.88;;;4.80;91.60;;;;;;5058004;28;20758;-55
2022/03/01 07:09:11;;;;;;;20.57;10.20;;;4.90;92.40;;;;;;5054934;28;21297;-53
2022/03/01 07:11:36;;;;;;;19.88;10.98;;;6.40;91.80;;;;;;5059058;28;20840;-54
2022/03/01 07:14:03;;;;;;;22.30;11.00;;;6.40;91.20;;;;;;5058744;28;20904;-53
2022/03/01 07:16:29;;;;;;;19.58;11.40;;;6.40;89.70;;;;;;5068012;28;20408;-53
2022/03/01 07:18:54;;;;;;;21.20;11.33;;;6.60;86.20;;;;;;5051670;28;20500;-53
2022/03/01 07:21:21;;;;;;;19.17;9.45;;;6.50;84.00;;;;;;5068960;28;20391;-53
2022/03/01 07:23:47;;;;;;;19.00;9.50;;;7.00;85.50;;;;;;5072401;28;20396;-55
2022/03/01 07:26:12;;;;;;;18.90;9.02;;;7.70;81.60;;;;;;5071182;28;20734;-56
2022/03/01 07:28:38;;;;;;;18.30;9.80;;;7.70;78.90;;;;;;5072122;28;20380;-56
2022/03/01 07:31:04;;;;;;;16.67;8.47;;;7.60;76.10;;;;;;5052956;28;20388;-56
2022/03/01 07:33:30;;;;;;;17.60;8.50;;;7.80;77.90;;;;;;5062066;28;20401;-55
2022/03/01 07:35:56;;;;;;;16.88;8.90;;;8.30;65.70;;;;;;5067508;28;20526;-55
2022/03/01 07:38:22;;;;;;;19.77;9.10;;;8.00;60.60;;;;;;5071573;28;20490;-55
2022/03/01 07:40:47;;;;;;;18.43;9.43;;;7.60;60.00;;;;;;5071754;28;20392;-53
2022/03/01 07:43:13;;;;;;;20.25;10.30;;;8.80;60.90;;;;;;5070589;28;20392;-55
2022/03/01 07:45:39;;;;;;;17.17;9.10;;;7.80;59.70;;;;;;5071224;28;20787;-56
2022/03/01 07:48:05;;;;;;;18.13;8.90;;;7.70;59.10;;;;;;5052252;28;20759;-55
2022/03/01 07:50:31;;;;;;;17.93;9.03;;;8.10;58.90;;;;;;5068928;28;20408;-55
2022/03/01 07:52:57;;;;;;;16.70;9.20;;;8.20;57.60;;;;;;5063380;28;20433;-55
2022/03/01 07:55:23;;;;;;;17.77;9.67;;;8.20;57.40;;;;;;5051633;28;20400;-55
2022/03/01 07:57:49;;;;;;;17.20;8.82;;;9.20;70.60;;;;;;5050818;28;20464;-57
2022/03/01 08:00:15;;;;;;;16.05;8.88;;;9.20;67.30;;;;;;5034223;28;20409;-55
2022/03/01 08:02:41;;;;;;;17.17;9.27;;;9.30;64.50;;;;;;5067114;28;20376;-55
2022/03/01 08:05:09;;;;;;;19.08;9.65;;;9.10;58.30;;;;;;5069869;28;20387;-55
2022/03/01 08:07:35;;;;;;;16.05;8.77;;;9.50;71.70;;;;;;5070781;28;20387;-55
2022/03/01 08:10:01;;;;;;;17.10;9.20;;;9.90;52.80;;;;;;5066492;28;20422;-55
2022/03/01 08:12:27;;;;;;;18.83;9.27;;;9.20;52.40;;;;;;5063683;28;20425;-55
2022/03/01 08:14:53;;;;;;;16.10;8.38;;;9.20;53.00;;;;;;5066530;28;20407;-56
2022/03/01 08:17:19;;;;;;;17.47;9.30;;;9.40;51.80;;;;;;5069871;28;20495;-55
2022/03/01 08:19:46;;;;;;;16.65;9.10;;;9.00;51.70;;;;;;5070236;28;20895;-56
2022/03/01 08:22:12;;;;;;;15.40;7.72;;;9.30;51.70;;;;;;5058585;28;20463;-56
2022/03/01 08:24:38;;;;;;;17.52;8.00;;;9.50;50.90;;;;;;5050841;28;20412;-55
2022/03/01 08:27:04;;;;;;;16.63;8.98;;;9.70;50.50;;;;;;5050275;28;20384;-56
2022/03/01 08:29:29;;;;;;;16.80;9.20;;;9.40;50.60;;;;;;5063016;28;20432;-54
2022/03/01 08:31:55;;;;;;;17.45;9.00;;;10.20;49.70;;;;;;5064751;28;20469;-55
2022/03/01 08:34:21;;;;;;;17.80;8.50;;;10.40;47.50;;;;;;5078183;28;20390;-57
2022/03/01 08:36:50;;;;;;;17.63;8.82;;;9.90;48.20;;;;;;5070346;28;20383;-55
2022/03/01 08:39:16;;;;;;;17.52;8.95;;;10.10;47.60;;;;;;5070295;28;20392;-55
2022/03/01 08:41:41;;;;;;;16.70;7.80;;;10.60;46.60;;;;;;5069693;28;20371;-55
2022/03/01 08:44:07;;;;;;;14.80;9.00;;;9.90;46.80;;;;;;5069354;28;20944;-57
2022/03/01 08:46:33;;;;;;;19.10;9.60;;;9.30;48.70;;;;;;5070390;28;20470;-57
2022/03/01 08:48:59;;;;;;;18.10;9.40;;;10.20;48.20;;;;;;5069737;28;20729;-55
2022/03/01 08:51:25;;;;;;;17.10;9.10;;;10.30;47.30;;;;;;5070433;28;20432;-55
2022/03/01 08:53:52;;;;;;;17.15;9.80;;;10.00;47.20;;;;;;5069142;28;20408;-57
2022/03/01 08:56:20;;;;;;;15.90;9.40;;;11.10;85.40;;;;;;5072480;28;20406;-54
2022/03/01 08:58:47;;;;;;;17.83;9.60;;;12.40;45.60;;;;;;5073794;28;20414;-54
2022/03/01 09:01:13;;;;;;;15.95;8.55;;;12.10;44.00;;;;;;5071959;28;20431;-54
2022/03/01 09:03:39;;;;;;;17.58;8.70;;;11.00;43.60;;;;;;5069183;28;20402;-56
2022/03/01 09:06:05;;;;;;;18.13;8.80;;;9.70;45.70;;;;;;5068942;28;20372;-56
2022/03/01 09:08:37;;;;;;;16.67;8.97;;;10.30;45.80;;;;;;5069790;28;20470;-56
2022/03/01 09:11:03;;;;;;;16.02;9.50;;;10.10;45.00;;;;;;5069602;28;20376;-56
2022/03/01 09:13:29;;;;;;;16.13;8.87;;;10.30;46.00;;;;;;5069959;28;20872;-56
2022/03/01 09:15:55;;;;;;;15.38;8.35;;;10.30;44.30;;;;;;5068967;28;20553;-56
2022/03/01 09:18:21;;;;;;;18.52;9.40;;;10.40;45.30;;;;;;5069777;28;20849;-56
2022/03/01 09:20:48;;;;;;;16.35;9.10;;;10.90;45.20;;;;;;5069368;28;20404;-56
2022/03/01 09:23:14;;;;;;;15.93;8.75;;;10.90;44.90;;;;;;5068375;28;20408;-54
2022/03/01 09:25:40;;;;;;;18.00;9.15;;;11.50;43.00;;;;;;5069126;28;20384;-55
2022/03/01 09:28:06;;;;;;;16.40;8.90;;;11.50;43.20;;;;;;5068828;28;20880;-55
2022/03/01 09:30:33;;;;;;;17.20;8.57;;;11.10;42.90;;;;;;5068914;28;20364;-55
2022/03/01 09:32:58;;;;;;;17.23;9.00;;;11.50;42.90;;;;;;5069022;28;20382;-55
2022/03/01 09:35:24;;;;;;;18.20;9.40;;;11.70;43.30;;;;;;5051652;28;20487;-55
2022/03/01 09:37:50;;;;;;;17.50;9.80;;;12.90;42.50;;;;;;5068842;28;20407;-56
2022/03/01 09:40:16;;;;;;;19.20;9.20;;;13.50;41.90;;;;;;5069244;28;20440;-55
2022/03/01 09:42:43;;;;;;;18.05;9.18;;;13.40;41.00;;;;;;5069547;28;20411;-55
2022/03/01 09:45:10;;;;;;;17.67;9.73;;;12.90;40.90;;;;;;5068759;28;20467;-55
2022/03/01 09:47:37;;;;;;;17.48;9.20;;;13.40;41.80;;;;;;5051450;28;20425;-55
2022/03/01 09:50:04;;;;;;;18.35;9.27;;;13.70;39.60;;;;;;5068519;28;20836;-55
2022/03/01 09:52:30;;;;;;;16.73;9.30;;;13.50;39.20;;;;;;5069624;28;20402;-55
2022/03/01 09:54:56;;;;;;;18.37;10.07;;;12.00;38.80;;;;;;5068838;28;20865;-55
2022/03/01 09:57:21;;;;;;;17.20;9.38;;;12.20;40.70;;;;;;5069528;28;20453;-55
2022/03/01 09:59:47;;;;;;;16.20;8.50;;;12.30;40.20;;;;;;5069538;28;20387;-55
2022/03/01 10:02:13;;;;;;;19.42;9.00;;;11.50;40.80;;;;;;5068605;28;20376;-55
2022/03/01 10:04:56;;;;;;;16.75;9.10;;;11.40;41.00;;;;;;5068917;28;20376;-55
2022/03/01 10:07:27;;;;;;;17.92;9.85;;;13.10;40.80;;;;;;5068826;28;20392;-55
2022/03/01 10:09:53;;;;;;;16.20;12.50;;;14.10;39.40;;;;;;5068207;28;20898;-56
2022/03/01 10:12:26;;;;;;;16.90;13.63;;;14.20;38.80;;;;;;5069544;28;20410;-55
2022/03/01 10:15:02;;;;;;;15.85;9.25;;;14.90;38.40;;;;;;5050496;28;20429;-56
2022/03/01 10:17:36;;;;;;;15.00;8.60;;;15.00;36.60;;;;;;5068940;28;20419;-55
2022/03/01 10:20:20;;;;;;;15.27;8.55;;;13.50;36.50;;;;;;5068460;28;20456;-55
2022/03/01 10:22:47;;;;;;;14.15;8.38;;;13.60;37.60;;;;;;5062769;28;20809;-56
2022/03/01 10:25:15;;;;;;;19.45;9.20;;;13.90;37.30;;;;;;5050415;28;20406;-56
2022/03/01 10:27:44;;;;;;;14.05;8.60;;;14.10;36.20;;;;;;5068703;28;20402;-56
2022/03/01 10:30:10;;;;;;;16.02;8.85;;;14.40;36.70;;;;;;5068188;28;20417;-56
2022/03/01 10:32:36;;;;;;;15.82;8.73;;;14.60;36.90;;;;;;5068971;28;20449;-56
2022/03/01 10:35:09;;;;;;;15.50;9.10;;;15.10;36.00;;;;;;5068382;28;20411;-56
2022/03/01 10:37:39;;;;;;;16.85;12.85;;;15.60;34.90;;;;;;5068838;28;20396;-55
2022/03/01 10:40:21;;;;;;;17.95;8.65;;;15.30;33.80;;;;;;5067869;28;20396;-56
2022/03/01 10:43:11;;;;;;;16.40;11.50;;;15.60;34.80;;;;;;5072792;28;20461;-56
2022/03/01 10:45:48;;;;;;;19.30;14.57;;;16.00;33.80;;;;;;5054903;28;20843;-56
2022/03/01 10:48:25;;;;;;;17.50;13.45;;;16.40;33.60;;;;;;5071815;28;20395;-56
2022/03/01 10:51:00;;;;;;;16.90;14.30;;;16.20;33.20;;;;;;5072450;28;20388;-56
2022/03/01 10:53:47;;;;;;;17.48;13.90;;;16.00;32.00;;;;;;5072431;28;20383;-56
2022/03/01 10:56:14;;;;;;;18.35;13.60;;;16.50;32.00;;;;;;5071670;28;20994;-55
2022/03/01 10:58:42;;;;;;;13.75;8.07;;;16.20;32.60;;;;;;5072093;28;20807;-56
2022/03/01 11:01:09;;;;;;;15.73;8.00;;;16.30;31.30;;;;;;5071613;28;20479;-56
2022/03/01 11:03:35;;;;;;;13.80;8.10;;;16.40;31.20;;;;;;5054777;28;20392;-55
2022/03/01 11:06:02;;;;;;;16.13;8.20;;;15.80;30.80;;;;;;5053830;28;20398;-56
2022/03/01 11:08:34;;;;;;;15.00;8.85;;;15.90;30.80;;;;;;5072311;28;20753;-55
2022/03/01 11:11:02;;;;;;;14.45;9.25;;;15.60;31.20;;;;;;5071510;28;20383;-56
2022/03/01 11:13:30;;;;;;;20.48;9.00;;;16.00;30.70;;;;;;5072187;28;20383;-56
2022/03/01 11:16:12;;;;;;;14.02;7.60;;;16.10;30.10;;;;;;5071116;28;20375;-56
2022/03/01 11:18:46;;;;;;;17.20;8.50;;;15.60;30.30;;;;;;5072223;28;20473;-56
2022/03/01 11:21:14;;;;;;;16.65;8.75;;;15.80;30.40;;;;;;5070961;28;20476;-56
2022/03/01 11:23:42;;;;;;;15.85;8.18;;;15.70;30.30;;;;;;5072282;28;20407;-56
2022/03/01 11:26:13;;;;;;;13.15;8.15;;;15.40;31.20;;;;;;5070853;28;20886;-56
2022/03/01 11:28:40;;;;;;;12.85;8.02;;;15.30;31.60;;;;;;5071978;28;20494;-56
2022/03/01 11:31:22;;;;;;;15.15;8.70;;;15.70;31.30;;;;;;5071036;28;20380;-56
2022/03/01 11:33:57;;;;;;;14.27;8.17;;;15.30;30.50;;;;;;5071995;28;20388;-55
2022/03/01 11:36:29;;;;;;;14.98;8.02;;;14.30;30.90;;;;;;5071749;28;20384;-56
2022/03/01 11:38:54;;;;;;;15.80;8.05;;;13.50;31.60;;;;;;5070911;28;21167;-56
2022/03/01 11:41:22;;;;;;;14.68;7.75;;;12.80;32.00;;;;;;5071645;28;20376;-56
2022/03/01 11:43:57;;;;;;;13.30;7.32;;;12.80;32.30;;;;;;5071597;28;20396;-55
2022/03/01 11:46:23;;;;;;;16.13;8.25;;;12.60;32.10;;;;;;5071441;28;20409;-55
2022/03/01 11:48:57;;;;;;;14.38;8.02;;;11.70;32.90;;;;;;5071645;28;20988;-56
2022/03/01 11:51:44;;;;;;;14.70;7.72;;;11.10;33.30;;;;;;5071908;28;20449;-56
2022/03/01 11:54:12;;;;;;;14.98;7.85;;;10.90;33.40;;;;;;5070419;28;20372;-56
2022/03/01 11:56:40;;;;;;;17.88;7.30;;;10.80;34.50;;;;;;5071498;28;20399;-55
2022/03/01 11:59:09;;;;;;;14.52;7.30;;;11.00;34.30;;;;;;5070375;28;20427;-55
2022/03/01 12:01:36;;;;;;;15.38;7.05;;;11.30;34.70;;;;;;5070948;28;20862;-55
2022/03/01 12:04:04;;;;;;;13.90;7.80;;;11.50;33.70;;;;;;5070533;28;20372;-56
2022/03/01 12:06:33;;;;;;;15.77;7.43;;;11.60;33.30;;;;;;5071055;28;20380;-55
2022/03/01 12:09:00;;;;;;;14.47;7.97;;;11.60;32.60;;;;;;5070303;28;20503;-56
2022/03/01 12:11:44;;;;;;;14.90;8.10;;;11.30;33.20;;;;;;5071073;28;20772;-55
2022/03/01 12:14:20;;;;;;;14.07;7.70;;;11.20;33.20;;;;;;5070651;28;20467;-55
2022/03/01 12:16:47;;;;;;;13.10;6.73;;;11.10;33.30;;;;;;5070840;28;20848;-56
2022/03/01 12:19:17;;;;;;;13.95;7.22;;;11.00;33.00;;;;;;5070505;28;20577;-55
2022/03/01 12:21:51;;;;;;;13.82;7.10;;;11.10;33.70;;;;;;5070838;28;20416;-56
2022/03/01 12:24:19;;;;;;;13.90;7.15;;;11.10;33.30;;;;;;5070260;28;20376;-56
2022/03/01 12:27:00;;;;;;;13.40;6.75;;;11.10;32.00;;;;;;5071019;28;20388;-56
2022/03/01 12:29:47;;;;;;;12.30;7.30;;;11.30;32.30;;;;;;5070828;28;20386;-56
2022/03/01 12:32:13;;;;;;;12.30;6.70;;;11.50;32.00;;;;;;5069923;28;20382;-56
2022/03/01 12:34:41;;;;;;;12.98;6.80;;;11.80;32.30;;;;;;5070510;28;20406;-56
2022/03/01 12:37:09;;;;;;;13.43;7.05;;;11.90;32.00;;;;;;5069713;28;20407;-57
2022/03/01 12:39:36;;;;;;;13.60;7.60;;;11.70;32.60;;;;;;5070442;28;20734;-56
2022/03/01 12:42:03;;;;;;;14.68;8.10;;;11.80;33.10;;;;;;5069698;28;20379;-56